sensor_id;sensor_type;location;lat;lon;timestamp;P1;durP1;ratioP1;P2;durP2;ratioP2
14474;SDS011;7323;50.848;4.334;2023-06-04T00:02:00;2.40;;;1.17;;
14474;SDS011;7323;50.848;4.334;2023-06-04T00:04:25;5.13;;;1.57;;
14474;SDS011;7323;50.848;4.334;2023-06-04T00:06:51;3.67;;;1.50;;
14474;SDS011;7323;50.848;4.334;2023-06-04T00:14:29;4.20;;;1.50;;
14474;SDS011;7323;50.848;4.334;2023-06-04T00:23:25;3.13;;;1.40;;
14474;SDS011;7323;50.848;4.334;2023-06-04T00:25:50;4.40;;;1.50;;
14474;SDS011;7323;50.848;4.334;2023-06-04T00:28:16;3.60;;;1.30;;
14474;SDS011;7323;50.848;4.334;2023-06-04T00:30:42;3.17;;;1.70;;
14474;SDS011;7323;50.848;4.334;2023-06-04T00:33:07;2.83;;;1.63;;
14474;SDS011;7323;50.848;4.334;2023-06-04T00:35:33;4.23;;;1.93;;
14474;SDS011;7323;50.848;4.334;2023-06-04T00:37:59;4.10;;;1.60;;
14474;SDS011;7323;50.848;4.334;2023-06-04T00:40:27;3.73;;;1.40;;
14474;SDS011;7323;50.848;4.334;2023-06-04T00:47:52;2.97;;;1.57;;
14474;SDS011;7323;50.848;4.334;2023-06-04T00:50:18;4.53;;;1.50;;
14474;SDS011;7323;50.848;4.334;2023-06-04T00:52:46;4.13;;;1.70;;
14474;SDS011;7323;50.848;4.334;2023-06-04T00:55:12;4.17;;;1.50;;
14474;SDS011;7323;50.848;4.334;2023-06-04T00:57:38;4.37;;;1.40;;
14474;SDS011;7323;50.848;4.334;2023-06-04T01:00:04;4.07;;;1.83;;
14474;SDS011;7323;50.848;4.334;2023-06-04T01:02:31;4.43;;;1.43;;
14474;SDS011;7323;50.848;4.334;2023-06-04T01:07:26;2.50;;;1.63;;
14474;SDS011;7323;50.848;4.334;2023-06-04T01:09:53;5.07;;;1.60;;
14474;SDS011;7323;50.848;4.334;2023-06-04T01:12:19;5.67;;;1.80;;
14474;SDS011;7323;50.848;4.334;2023-06-04T01:14:45;4.60;;;1.77;;
14474;SDS011;7323;50.848;4.334;2023-06-04T01:22:42;3.23;;;1.60;;
14474;SDS011;7323;50.848;4.334;2023-06-04T01:25:27;5.87;;;2.23;;
14474;SDS011;7323;50.848;4.334;2023-06-04T01:28:02;4.00;;;1.87;;
14474;SDS011;7323;50.848;4.334;2023-06-04T01:30:30;3.30;;;1.60;;
14474;SDS011;7323;50.848;4.334;2023-06-04T01:32:58;3.60;;;1.93;;
14474;SDS011;7323;50.848;4.334;2023-06-04T01:35:25;4.97;;;2.07;;
14474;SDS011;7323;50.848;4.334;2023-06-04T01:37:52;4.90;;;1.90;;
14474;SDS011;7323;50.848;4.334;2023-06-04T01:40:19;3.73;;;2.07;;
14474;SDS011;7323;50.848;4.334;2023-06-04T01:42:45;4.63;;;2.37;;
14474;SDS011;7323;50.848;4.334;2023-06-04T01:45:11;4.27;;;2.20;;
14474;SDS011;7323;50.848;4.334;2023-06-04T01:47:37;8.63;;;2.10;;
14474;SDS011;7323;50.848;4.334;2023-06-04T01:50:06;3.10;;;1.70;;
14474;SDS011;7323;50.848;4.334;2023-06-04T01:52:36;6.80;;;2.10;;
14474;SDS011;7323;50.848;4.334;2023-06-04T01:55:03;5.63;;;2.20;;
14474;SDS011;7323;50.848;4.334;2023-06-04T01:57:37;6.07;;;2.10;;
14474;SDS011;7323;50.848;4.334;2023-06-04T02:00:07;3.67;;;1.80;;
14474;SDS011;7323;50.848;4.334;2023-06-04T02:02:35;7.23;;;2.20;;
14474;SDS011;7323;50.848;4.334;2023-06-04T02:05:03;5.13;;;2.33;;
14474;SDS011;7323;50.848;4.334;2023-06-04T02:07:34;7.27;;;2.40;;
14474;SDS011;7323;50.848;4.334;2023-06-04T02:10:00;5.63;;;1.83;;
14474;SDS011;7323;50.848;4.334;2023-06-04T02:12:26;3.93;;;2.00;;
14474;SDS011;7323;50.848;4.334;2023-06-04T02:14:52;4.00;;;2.10;;
14474;SDS011;7323;50.848;4.334;2023-06-04T02:17:18;4.87;;;2.27;;
14474;SDS011;7323;50.848;4.334;2023-06-04T02:19:44;5.53;;;2.40;;
14474;SDS011;7323;50.848;4.334;2023-06-04T02:22:14;4.40;;;2.30;;
14474;SDS011;7323;50.848;4.334;2023-06-04T02:24:41;4.63;;;2.20;;
14474;SDS011;7323;50.848;4.334;2023-06-04T02:27:10;5.30;;;1.70;;
14474;SDS011;7323;50.848;4.334;2023-06-04T02:29:40;3.07;;;2.27;;
14474;SDS011;7323;50.848;4.334;2023-06-04T02:32:07;3.97;;;2.20;;
14474;SDS011;7323;50.848;4.334;2023-06-04T02:34:33;4.07;;;2.10;;
14474;SDS011;7323;50.848;4.334;2023-06-04T02:36:59;5.80;;;2.00;;
14474;SDS011;7323;50.848;4.334;2023-06-04T02:39:25;4.13;;;2.07;;
14474;SDS011;7323;50.848;4.334;2023-06-04T02:41:51;3.60;;;2.07;;
14474;SDS011;7323;50.848;4.334;2023-06-04T02:44:17;6.37;;;2.23;;
14474;SDS011;7323;50.848;4.334;2023-06-04T02:46:44;4.97;;;2.37;;
14474;SDS011;7323;50.848;4.334;2023-06-04T02:49:12;4.47;;;2.43;;
14474;SDS011;7323;50.848;4.334;2023-06-04T02:51:44;3.83;;;2.13;;
14474;SDS011;7323;50.848;4.334;2023-06-04T02:54:10;3.70;;;2.00;;
14474;SDS011;7323;50.848;4.334;2023-06-04T02:56:38;3.50;;;2.23;;
14474;SDS011;7323;50.848;4.334;2023-06-04T02:59:05;4.07;;;2.37;;
14474;SDS011;7323;50.848;4.334;2023-06-04T03:01:35;4.23;;;2.00;;
14474;SDS011;7323;50.848;4.334;2023-06-04T03:04:09;3.57;;;2.10;;
14474;SDS011;7323;50.848;4.334;2023-06-04T03:09:38;4.87;;;2.27;;
14474;SDS011;7323;50.848;4.334;2023-06-04T03:15:05;4.93;;;2.37;;
14474;SDS011;7323;50.848;4.334;2023-06-04T03:17:33;3.67;;;2.20;;
14474;SDS011;7323;50.848;4.334;2023-06-04T03:20:03;4.47;;;2.23;;
14474;SDS011;7323;50.848;4.334;2023-06-04T03:22:36;5.13;;;2.13;;
14474;SDS011;7323;50.848;4.334;2023-06-04T03:27:34;4.03;;;2.00;;
14474;SDS011;7323;50.848;4.334;2023-06-04T03:30:02;6.03;;;2.60;;
14474;SDS011;7323;50.848;4.334;2023-06-04T03:32:28;3.90;;;2.07;;
14474;SDS011;7323;50.848;4.334;2023-06-04T03:34:56;4.83;;;2.20;;
14474;SDS011;7323;50.848;4.334;2023-06-04T03:37:34;3.97;;;2.40;;
14474;SDS011;7323;50.848;4.334;2023-06-04T03:45:02;5.10;;;2.60;;
14474;SDS011;7323;50.848;4.334;2023-06-04T03:47:30;5.30;;;3.00;;
14474;SDS011;7323;50.848;4.334;2023-06-04T03:49:56;5.80;;;2.20;;
14474;SDS011;7323;50.848;4.334;2023-06-04T03:55:26;5.77;;;2.50;;
14474;SDS011;7323;50.848;4.334;2023-06-04T03:57:55;5.70;;;2.73;;
14474;SDS011;7323;50.848;4.334;2023-06-04T04:00:21;7.37;;;2.33;;
14474;SDS011;7323;50.848;4.334;2023-06-04T04:02:47;7.17;;;2.17;;
14474;SDS011;7323;50.848;4.334;2023-06-04T04:05:13;4.57;;;2.60;;
14474;SDS011;7323;50.848;4.334;2023-06-04T04:07:39;5.10;;;2.40;;
14474;SDS011;7323;50.848;4.334;2023-06-04T04:10:05;4.10;;;2.80;;
14474;SDS011;7323;50.848;4.334;2023-06-04T04:12:31;7.07;;;2.53;;
14474;SDS011;7323;50.848;4.334;2023-06-04T04:14:56;6.27;;;2.93;;
14474;SDS011;7323;50.848;4.334;2023-06-04T04:17:22;5.13;;;2.63;;
14474;SDS011;7323;50.848;4.334;2023-06-04T04:19:48;4.83;;;2.37;;
14474;SDS011;7323;50.848;4.334;2023-06-04T04:22:13;7.00;;;2.97;;
14474;SDS011;7323;50.848;4.334;2023-06-04T04:24:42;6.07;;;2.60;;
14474;SDS011;7323;50.848;4.334;2023-06-04T04:27:08;6.73;;;3.10;;
14474;SDS011;7323;50.848;4.334;2023-06-04T04:29:36;5.07;;;2.27;;
14474;SDS011;7323;50.848;4.334;2023-06-04T04:32:02;4.77;;;2.63;;
14474;SDS011;7323;50.848;4.334;2023-06-04T04:34:35;5.40;;;2.67;;
14474;SDS011;7323;50.848;4.334;2023-06-04T04:37:05;3.90;;;2.30;;
14474;SDS011;7323;50.848;4.334;2023-06-04T04:39:33;4.57;;;2.10;;
14474;SDS011;7323;50.848;4.334;2023-06-04T04:42:05;3.93;;;2.30;;
14474;SDS011;7323;50.848;4.334;2023-06-04T04:47:01;4.17;;;2.03;;
14474;SDS011;7323;50.848;4.334;2023-06-04T04:49:26;4.73;;;2.10;;
14474;SDS011;7323;50.848;4.334;2023-06-04T04:51:52;4.00;;;2.57;;
14474;SDS011;7323;50.848;4.334;2023-06-04T04:54:18;3.50;;;2.13;;
14474;SDS011;7323;50.848;4.334;2023-06-04T04:56:43;4.17;;;2.73;;
14474;SDS011;7323;50.848;4.334;2023-06-04T04:59:09;4.23;;;3.00;;
14474;SDS011;7323;50.848;4.334;2023-06-04T05:01:35;3.97;;;2.50;;
14474;SDS011;7323;50.848;4.334;2023-06-04T05:04:00;5.53;;;2.97;;
14474;SDS011;7323;50.848;4.334;2023-06-04T05:06:26;7.27;;;2.53;;
14474;SDS011;7323;50.848;4.334;2023-06-04T05:08:52;4.50;;;2.60;;
14474;SDS011;7323;50.848;4.334;2023-06-04T05:11:20;5.73;;;2.47;;
14474;SDS011;7323;50.848;4.334;2023-06-04T05:13:52;3.90;;;2.63;;
14474;SDS011;7323;50.848;4.334;2023-06-04T05:16:19;7.60;;;2.93;;
14474;SDS011;7323;50.848;4.334;2023-06-04T05:18:45;3.90;;;2.07;;
14474;SDS011;7323;50.848;4.334;2023-06-04T05:21:11;5.63;;;2.50;;
14474;SDS011;7323;50.848;4.334;2023-06-04T05:23:38;6.07;;;2.77;;
14474;SDS011;7323;50.848;4.334;2023-06-04T05:26:05;7.30;;;2.70;;
14474;SDS011;7323;50.848;4.334;2023-06-04T05:28:31;4.60;;;2.60;;
14474;SDS011;7323;50.848;4.334;2023-06-04T05:30:59;6.03;;;2.80;;
14474;SDS011;7323;50.848;4.334;2023-06-04T05:33:25;4.30;;;2.63;;
14474;SDS011;7323;50.848;4.334;2023-06-04T05:35:52;4.97;;;2.87;;
14474;SDS011;7323;50.848;4.334;2023-06-04T05:38:22;4.83;;;2.40;;
14474;SDS011;7323;50.848;4.334;2023-06-04T05:40:56;6.17;;;3.00;;
14474;SDS011;7323;50.848;4.334;2023-06-04T05:43:22;4.40;;;2.30;;
14474;SDS011;7323;50.848;4.334;2023-06-04T05:45:48;5.93;;;2.30;;
14474;SDS011;7323;50.848;4.334;2023-06-04T05:48:15;3.97;;;2.67;;
14474;SDS011;7323;50.848;4.334;2023-06-04T05:50:40;5.33;;;2.60;;
14474;SDS011;7323;50.848;4.334;2023-06-04T05:53:06;7.50;;;3.00;;
14474;SDS011;7323;50.848;4.334;2023-06-04T05:55:32;4.60;;;2.67;;
14474;SDS011;7323;50.848;4.334;2023-06-04T05:57:57;6.63;;;2.80;;
14474;SDS011;7323;50.848;4.334;2023-06-04T06:00:23;5.97;;;2.87;;
14474;SDS011;7323;50.848;4.334;2023-06-04T06:02:52;3.33;;;2.63;;
14474;SDS011;7323;50.848;4.334;2023-06-04T06:05:18;4.87;;;2.70;;
14474;SDS011;7323;50.848;4.334;2023-06-04T06:07:45;5.00;;;2.67;;
14474;SDS011;7323;50.848;4.334;2023-06-04T06:10:12;5.57;;;2.77;;
14474;SDS011;7323;50.848;4.334;2023-06-04T06:12:39;4.30;;;2.57;;
14474;SDS011;7323;50.848;4.334;2023-06-04T06:15:16;6.93;;;3.10;;
14474;SDS011;7323;50.848;4.334;2023-06-04T06:17:42;4.63;;;2.63;;
14474;SDS011;7323;50.848;4.334;2023-06-04T06:20:08;5.47;;;3.30;;
14474;SDS011;7323;50.848;4.334;2023-06-04T06:22:35;6.33;;;2.70;;
14474;SDS011;7323;50.848;4.334;2023-06-04T06:25:02;5.40;;;2.87;;
14474;SDS011;7323;50.848;4.334;2023-06-04T06:27:30;4.53;;;2.43;;
14474;SDS011;7323;50.848;4.334;2023-06-04T06:29:56;5.03;;;3.07;;
14474;SDS011;7323;50.848;4.334;2023-06-04T06:32:21;4.57;;;2.93;;
14474;SDS011;7323;50.848;4.334;2023-06-04T06:34:47;4.40;;;2.77;;
14474;SDS011;7323;50.848;4.334;2023-06-04T06:37:13;6.90;;;2.70;;
14474;SDS011;7323;50.848;4.334;2023-06-04T06:39:38;3.70;;;2.20;;
14474;SDS011;7323;50.848;4.334;2023-06-04T06:42:04;8.67;;;2.93;;
14474;SDS011;7323;50.848;4.334;2023-06-04T06:44:30;4.20;;;2.73;;
14474;SDS011;7323;50.848;4.334;2023-06-04T06:46:55;4.30;;;2.87;;
14474;SDS011;7323;50.848;4.334;2023-06-04T06:49:21;6.83;;;3.00;;
14474;SDS011;7323;50.848;4.334;2023-06-04T06:51:47;5.03;;;2.33;;
14474;SDS011;7323;50.848;4.334;2023-06-04T06:54:14;5.93;;;2.90;;
14474;SDS011;7323;50.848;4.334;2023-06-04T06:56:48;4.23;;;2.57;;
14474;SDS011;7323;50.848;4.334;2023-06-04T06:59:15;4.37;;;3.00;;
14474;SDS011;7323;50.848;4.334;2023-06-04T07:01:41;6.73;;;3.03;;
14474;SDS011;7323;50.848;4.334;2023-06-04T07:04:06;5.97;;;2.47;;
14474;SDS011;7323;50.848;4.334;2023-06-04T07:06:33;6.57;;;2.73;;
14474;SDS011;7323;50.848;4.334;2023-06-04T07:08:59;3.47;;;2.07;;
14474;SDS011;7323;50.848;4.334;2023-06-04T07:11:25;3.17;;;2.30;;
14474;SDS011;7323;50.848;4.334;2023-06-04T07:13:51;3.83;;;2.43;;
14474;SDS011;7323;50.848;4.334;2023-06-04T07:16:16;4.93;;;2.43;;
14474;SDS011;7323;50.848;4.334;2023-06-04T07:18:46;4.20;;;2.33;;
14474;SDS011;7323;50.848;4.334;2023-06-04T07:21:13;6.97;;;2.67;;
14474;SDS011;7323;50.848;4.334;2023-06-04T07:23:39;7.57;;;2.63;;
14474;SDS011;7323;50.848;4.334;2023-06-04T07:26:04;4.43;;;2.60;;
14474;SDS011;7323;50.848;4.334;2023-06-04T07:28:36;6.10;;;2.50;;
14474;SDS011;7323;50.848;4.334;2023-06-04T07:31:10;4.63;;;2.50;;
14474;SDS011;7323;50.848;4.334;2023-06-04T07:33:54;4.60;;;2.23;;
14474;SDS011;7323;50.848;4.334;2023-06-04T07:36:30;4.07;;;2.27;;
14474;SDS011;7323;50.848;4.334;2023-06-04T07:38:56;3.53;;;1.80;;
14474;SDS011;7323;50.848;4.334;2023-06-04T07:41:22;3.97;;;2.03;;
14474;SDS011;7323;50.848;4.334;2023-06-04T07:43:47;4.90;;;2.00;;
14474;SDS011;7323;50.848;4.334;2023-06-04T07:46:13;3.20;;;2.00;;
14474;SDS011;7323;50.848;4.334;2023-06-04T07:48:43;3.93;;;2.10;;
14474;SDS011;7323;50.848;4.334;2023-06-04T07:51:09;3.47;;;2.17;;
14474;SDS011;7323;50.848;4.334;2023-06-04T07:53:36;4.33;;;1.90;;
14474;SDS011;7323;50.848;4.334;2023-06-04T07:56:05;4.70;;;1.87;;
14474;SDS011;7323;50.848;4.334;2023-06-04T07:58:32;4.10;;;1.70;;
14474;SDS011;7323;50.848;4.334;2023-06-04T08:00:58;4.80;;;2.23;;
14474;SDS011;7323;50.848;4.334;2023-06-04T08:03:25;3.13;;;1.70;;
14474;SDS011;7323;50.848;4.334;2023-06-04T08:05:51;4.33;;;1.90;;
14474;SDS011;7323;50.848;4.334;2023-06-04T08:08:18;3.00;;;1.80;;
14474;SDS011;7323;50.848;4.334;2023-06-04T08:10:44;5.07;;;1.97;;
14474;SDS011;7323;50.848;4.334;2023-06-04T08:13:10;3.37;;;1.63;;
14474;SDS011;7323;50.848;4.334;2023-06-04T08:15:36;3.27;;;1.70;;
14474;SDS011;7323;50.848;4.334;2023-06-04T08:18:01;5.37;;;1.83;;
14474;SDS011;7323;50.848;4.334;2023-06-04T08:20:27;5.03;;;1.87;;
14474;SDS011;7323;50.848;4.334;2023-06-04T08:22:52;3.50;;;1.60;;
14474;SDS011;7323;50.848;4.334;2023-06-04T08:25:19;3.33;;;1.90;;
14474;SDS011;7323;50.848;4.334;2023-06-04T08:27:45;2.97;;;1.60;;
14474;SDS011;7323;50.848;4.334;2023-06-04T08:30:11;3.23;;;1.47;;
14474;SDS011;7323;50.848;4.334;2023-06-04T08:32:36;3.27;;;1.40;;
14474;SDS011;7323;50.848;4.334;2023-06-04T08:35:02;3.10;;;1.47;;
14474;SDS011;7323;50.848;4.334;2023-06-04T08:37:28;2.70;;;1.37;;
14474;SDS011;7323;50.848;4.334;2023-06-04T08:39:54;5.43;;;3.73;;
14474;SDS011;7323;50.848;4.334;2023-06-04T08:42:40;5.20;;;1.27;;
14474;SDS011;7323;50.848;4.334;2023-06-04T08:45:12;3.83;;;1.40;;
14474;SDS011;7323;50.848;4.334;2023-06-04T08:47:48;3.87;;;1.37;;
14474;SDS011;7323;50.848;4.334;2023-06-04T08:50:20;4.80;;;1.63;;
14474;SDS011;7323;50.848;4.334;2023-06-04T08:52:48;6.73;;;1.87;;
14474;SDS011;7323;50.848;4.334;2023-06-04T08:55:17;5.70;;;1.83;;
14474;SDS011;7323;50.848;4.334;2023-06-04T08:57:43;2.33;;;1.53;;
14474;SDS011;7323;50.848;4.334;2023-06-04T09:00:10;4.67;;;2.10;;
14474;SDS011;7323;50.848;4.334;2023-06-04T09:02:37;3.73;;;1.30;;
14474;SDS011;7323;50.848;4.334;2023-06-04T09:05:04;2.27;;;1.30;;
14474;SDS011;7323;50.848;4.334;2023-06-04T09:07:35;4.73;;;1.50;;
14474;SDS011;7323;50.848;4.334;2023-06-04T09:10:10;2.93;;;1.07;;
14474;SDS011;7323;50.848;4.334;2023-06-04T09:12:42;2.87;;;1.50;;
14474;SDS011;7323;50.848;4.334;2023-06-04T09:15:11;4.63;;;1.43;;
14474;SDS011;7323;50.848;4.334;2023-06-04T09:17:37;2.83;;;1.43;;
14474;SDS011;7323;50.848;4.334;2023-06-04T09:22:35;3.50;;;1.47;;
14474;SDS011;7323;50.848;4.334;2023-06-04T09:25:04;2.33;;;1.23;;
14474;SDS011;7323;50.848;4.334;2023-06-04T09:27:40;5.77;;;1.80;;
14474;SDS011;7323;50.848;4.334;2023-06-04T09:30:07;3.47;;;1.50;;
14474;SDS011;7323;50.848;4.334;2023-06-04T09:32:34;5.27;;;1.57;;
14474;SDS011;7323;50.848;4.334;2023-06-04T09:35:12;3.53;;;1.43;;
14474;SDS011;7323;50.848;4.334;2023-06-04T09:37:54;4.77;;;1.53;;
14474;SDS011;7323;50.848;4.334;2023-06-04T09:40:22;4.07;;;1.53;;
14474;SDS011;7323;50.848;4.334;2023-06-04T09:42:50;2.83;;;1.40;;
14474;SDS011;7323;50.848;4.334;2023-06-04T09:45:26;4.87;;;1.80;;
14474;SDS011;7323;50.848;4.334;2023-06-04T09:47:55;4.87;;;1.60;;
14474;SDS011;7323;50.848;4.334;2023-06-04T09:50:32;4.30;;;1.80;;
14474;SDS011;7323;50.848;4.334;2023-06-04T09:52:59;6.93;;;2.17;;
14474;SDS011;7323;50.848;4.334;2023-06-04T09:55:25;4.47;;;1.73;;
14474;SDS011;7323;50.848;4.334;2023-06-04T09:57:51;3.07;;;1.30;;
14474;SDS011;7323;50.848;4.334;2023-06-04T10:00:24;3.87;;;1.40;;
14474;SDS011;7323;50.848;4.334;2023-06-04T10:02:51;4.63;;;1.67;;
14474;SDS011;7323;50.848;4.334;2023-06-04T10:05:22;4.67;;;1.80;;
14474;SDS011;7323;50.848;4.334;2023-06-04T10:07:55;4.03;;;1.63;;
14474;SDS011;7323;50.848;4.334;2023-06-04T10:10:25;4.57;;;1.70;;
14474;SDS011;7323;50.848;4.334;2023-06-04T10:13:12;3.13;;;1.80;;
14474;SDS011;7323;50.848;4.334;2023-06-04T10:15:42;2.70;;;1.23;;
14474;SDS011;7323;50.848;4.334;2023-06-04T10:18:12;5.87;;;1.97;;
14474;SDS011;7323;50.848;4.334;2023-06-04T10:20:40;6.00;;;1.80;;
14474;SDS011;7323;50.848;4.334;2023-06-04T10:23:10;6.27;;;1.40;;
14474;SDS011;7323;50.848;4.334;2023-06-04T10:25:36;5.63;;;1.43;;
14474;SDS011;7323;50.848;4.334;2023-06-04T10:28:02;7.03;;;1.70;;
14474;SDS011;7323;50.848;4.334;2023-06-04T10:30:29;4.57;;;1.70;;
14474;SDS011;7323;50.848;4.334;2023-06-04T10:32:56;3.60;;;1.47;;
14474;SDS011;7323;50.848;4.334;2023-06-04T10:35:29;4.57;;;1.50;;
14474;SDS011;7323;50.848;4.334;2023-06-04T10:38:09;6.30;;;1.63;;
14474;SDS011;7323;50.848;4.334;2023-06-04T10:40:38;6.03;;;1.77;;
14474;SDS011;7323;50.848;4.334;2023-06-04T10:43:04;3.80;;;1.90;;
14474;SDS011;7323;50.848;4.334;2023-06-04T10:45:31;5.10;;;1.80;;
14474;SDS011;7323;50.848;4.334;2023-06-04T10:48:04;3.27;;;1.50;;
14474;SDS011;7323;50.848;4.334;2023-06-04T10:50:35;4.20;;;1.90;;
14474;SDS011;7323;50.848;4.334;2023-06-04T10:53:12;3.37;;;1.77;;
14474;SDS011;7323;50.848;4.334;2023-06-04T10:55:47;5.70;;;1.80;;
14474;SDS011;7323;50.848;4.334;2023-06-04T10:58:13;4.33;;;1.70;;
14474;SDS011;7323;50.848;4.334;2023-06-04T11:00:41;4.27;;;1.67;;
14474;SDS011;7323;50.848;4.334;2023-06-04T11:03:09;4.13;;;1.50;;
14474;SDS011;7323;50.848;4.334;2023-06-04T11:05:36;6.83;;;1.40;;
14474;SDS011;7323;50.848;4.334;2023-06-04T11:08:04;5.50;;;1.50;;
14474;SDS011;7323;50.848;4.334;2023-06-04T11:10:37;2.87;;;1.57;;
14474;SDS011;7323;50.848;4.334;2023-06-04T11:13:05;3.53;;;1.70;;
14474;SDS011;7323;50.848;4.334;2023-06-04T11:15:39;3.73;;;1.30;;
14474;SDS011;7323;50.848;4.334;2023-06-04T11:18:06;4.03;;;1.97;;
14474;SDS011;7323;50.848;4.334;2023-06-04T11:20:32;4.17;;;1.70;;
14474;SDS011;7323;50.848;4.334;2023-06-04T11:22:58;4.63;;;1.60;;
14474;SDS011;7323;50.848;4.334;2023-06-04T11:25:28;10.17;;;1.90;;
14474;SDS011;7323;50.848;4.334;2023-06-04T11:27:55;5.13;;;1.90;;
14474;SDS011;7323;50.848;4.334;2023-06-04T11:30:23;3.73;;;1.53;;
14474;SDS011;7323;50.848;4.334;2023-06-04T11:32:50;2.50;;;1.40;;
14474;SDS011;7323;50.848;4.334;2023-06-04T11:35:28;6.90;;;1.70;;
14474;SDS011;7323;50.848;4.334;2023-06-04T11:37:56;2.77;;;1.60;;
14474;SDS011;7323;50.848;4.334;2023-06-04T11:40:23;2.57;;;1.43;;
14474;SDS011;7323;50.848;4.334;2023-06-04T11:42:51;5.77;;;2.00;;
14474;SDS011;7323;50.848;4.334;2023-06-04T11:45:18;2.53;;;1.50;;
14474;SDS011;7323;50.848;4.334;2023-06-04T11:47:48;2.90;;;1.40;;
14474;SDS011;7323;50.848;4.334;2023-06-04T11:50:14;2.53;;;1.20;;
14474;SDS011;7323;50.848;4.334;2023-06-04T11:52:41;4.63;;;1.63;;
14474;SDS011;7323;50.848;4.334;2023-06-04T11:55:08;4.03;;;1.43;;
14474;SDS011;7323;50.848;4.334;2023-06-04T11:57:54;4.07;;;1.63;;
14474;SDS011;7323;50.848;4.334;2023-06-04T12:00:20;4.17;;;1.50;;
14474;SDS011;7323;50.848;4.334;2023-06-04T12:02:53;2.73;;;1.60;;
14474;SDS011;7323;50.848;4.334;2023-06-04T12:05:22;3.63;;;1.50;;
14474;SDS011;7323;50.848;4.334;2023-06-04T12:08:03;3.70;;;1.80;;
14474;SDS011;7323;50.848;4.334;2023-06-04T12:10:41;2.80;;;1.43;;
14474;SDS011;7323;50.848;4.334;2023-06-04T12:13:08;3.93;;;1.53;;
14474;SDS011;7323;50.848;4.334;2023-06-04T12:15:36;4.73;;;1.70;;
14474;SDS011;7323;50.848;4.334;2023-06-04T12:18:02;4.13;;;1.40;;
14474;SDS011;7323;50.848;4.334;2023-06-04T12:20:34;3.27;;;1.50;;
14474;SDS011;7323;50.848;4.334;2023-06-04T12:23:02;3.27;;;1.60;;
14474;SDS011;7323;50.848;4.334;2023-06-04T12:25:28;3.43;;;1.60;;
14474;SDS011;7323;50.848;4.334;2023-06-04T12:27:55;2.53;;;1.37;;
14474;SDS011;7323;50.848;4.334;2023-06-04T12:30:21;2.70;;;1.40;;
14474;SDS011;7323;50.848;4.334;2023-06-04T12:32:47;3.23;;;1.70;;
14474;SDS011;7323;50.848;4.334;2023-06-04T12:35:13;5.00;;;1.40;;
14474;SDS011;7323;50.848;4.334;2023-06-04T12:37:41;6.37;;;1.70;;
14474;SDS011;7323;50.848;4.334;2023-06-04T12:40:07;3.63;;;1.53;;
14474;SDS011;7323;50.848;4.334;2023-06-04T12:42:33;4.77;;;1.57;;
14474;SDS011;7323;50.848;4.334;2023-06-04T12:44:59;8.30;;;2.37;;
14474;SDS011;7323;50.848;4.334;2023-06-04T12:47:25;4.40;;;1.80;;
14474;SDS011;7323;50.848;4.334;2023-06-04T12:49:52;3.77;;;1.90;;
14474;SDS011;7323;50.848;4.334;2023-06-04T12:52:17;4.77;;;1.73;;
14474;SDS011;7323;50.848;4.334;2023-06-04T12:54:43;3.27;;;1.60;;
14474;SDS011;7323;50.848;4.334;2023-06-04T12:57:10;2.60;;;1.50;;
14474;SDS011;7323;50.848;4.334;2023-06-04T12:59:37;5.80;;;1.73;;
14474;SDS011;7323;50.848;4.334;2023-06-04T13:02:02;3.87;;;1.47;;
14474;SDS011;7323;50.848;4.334;2023-06-04T13:04:28;5.80;;;1.73;;
14474;SDS011;7323;50.848;4.334;2023-06-04T13:06:55;4.40;;;1.70;;
14474;SDS011;7323;50.848;4.334;2023-06-04T13:09:26;3.30;;;1.80;;
14474;SDS011;7323;50.848;4.334;2023-06-04T13:11:57;4.27;;;1.90;;
14474;SDS011;7323;50.848;4.334;2023-06-04T13:14:22;28.93;;;4.77;;
14474;SDS011;7323;50.848;4.334;2023-06-04T13:16:51;2.70;;;1.33;;
14474;SDS011;7323;50.848;4.334;2023-06-04T13:19:22;5.23;;;1.87;;
14474;SDS011;7323;50.848;4.334;2023-06-04T13:21:48;5.60;;;2.10;;
14474;SDS011;7323;50.848;4.334;2023-06-04T13:24:14;7.00;;;2.03;;
14474;SDS011;7323;50.848;4.334;2023-06-04T13:26:40;4.53;;;1.90;;
14474;SDS011;7323;50.848;4.334;2023-06-04T13:29:08;7.07;;;2.30;;
14474;SDS011;7323;50.848;4.334;2023-06-04T13:31:33;2.93;;;1.60;;
14474;SDS011;7323;50.848;4.334;2023-06-04T13:34:00;4.80;;;1.60;;
14474;SDS011;7323;50.848;4.334;2023-06-04T13:36:25;2.83;;;1.40;;
14474;SDS011;7323;50.848;4.334;2023-06-04T13:38:52;4.93;;;1.77;;
14474;SDS011;7323;50.848;4.334;2023-06-04T13:41:20;5.43;;;1.70;;
14474;SDS011;7323;50.848;4.334;2023-06-04T13:43:46;4.83;;;1.90;;
14474;SDS011;7323;50.848;4.334;2023-06-04T13:46:12;3.23;;;1.50;;
14474;SDS011;7323;50.848;4.334;2023-06-04T13:48:41;3.03;;;1.60;;
14474;SDS011;7323;50.848;4.334;2023-06-04T13:51:08;4.60;;;1.70;;
14474;SDS011;7323;50.848;4.334;2023-06-04T13:53:42;6.43;;;1.90;;
14474;SDS011;7323;50.848;4.334;2023-06-04T13:56:10;4.60;;;1.80;;
14474;SDS011;7323;50.848;4.334;2023-06-04T13:58:39;3.93;;;1.77;;
14474;SDS011;7323;50.848;4.334;2023-06-04T14:01:06;7.33;;;1.73;;
14474;SDS011;7323;50.848;4.334;2023-06-04T14:03:32;4.87;;;1.90;;
14474;SDS011;7323;50.848;4.334;2023-06-04T14:05:59;3.70;;;1.90;;
14474;SDS011;7323;50.848;4.334;2023-06-04T14:08:24;4.63;;;1.57;;
14474;SDS011;7323;50.848;4.334;2023-06-04T14:10:50;4.17;;;2.00;;
14474;SDS011;7323;50.848;4.334;2023-06-04T14:13:17;3.47;;;2.40;;
14474;SDS011;7323;50.848;4.334;2023-06-04T14:15:42;4.40;;;1.73;;
14474;SDS011;7323;50.848;4.334;2023-06-04T14:18:08;2.67;;;1.57;;
14474;SDS011;7323;50.848;4.334;2023-06-04T14:20:33;3.73;;;1.73;;
14474;SDS011;7323;50.848;4.334;2023-06-04T14:22:59;2.07;;;1.40;;
14474;SDS011;7323;50.848;4.334;2023-06-04T14:25:25;2.47;;;1.47;;
14474;SDS011;7323;50.848;4.334;2023-06-04T14:27:51;2.73;;;1.60;;
14474;SDS011;7323;50.848;4.334;2023-06-04T14:30:19;4.40;;;1.70;;
14474;SDS011;7323;50.848;4.334;2023-06-04T14:32:44;3.07;;;1.80;;
14474;SDS011;7323;50.848;4.334;2023-06-04T14:35:10;2.33;;;1.70;;
14474;SDS011;7323;50.848;4.334;2023-06-04T14:37:37;2.87;;;1.60;;
14474;SDS011;7323;50.848;4.334;2023-06-04T14:40:03;7.80;;;1.97;;
14474;SDS011;7323;50.848;4.334;2023-06-04T14:42:30;3.73;;;1.90;;
14474;SDS011;7323;50.848;4.334;2023-06-04T14:44:55;2.47;;;1.53;;
14474;SDS011;7323;50.848;4.334;2023-06-04T14:47:21;4.23;;;1.60;;
14474;SDS011;7323;50.848;4.334;2023-06-04T14:49:50;5.13;;;1.70;;
14474;SDS011;7323;50.848;4.334;2023-06-04T14:52:16;3.27;;;1.60;;
14474;SDS011;7323;50.848;4.334;2023-06-04T14:54:41;2.23;;;1.30;;
14474;SDS011;7323;50.848;4.334;2023-06-04T14:57:08;4.07;;;2.30;;
14474;SDS011;7323;50.848;4.334;2023-06-04T14:59:35;4.07;;;1.70;;
14474;SDS011;7323;50.848;4.334;2023-06-04T15:02:01;4.27;;;1.80;;
14474;SDS011;7323;50.848;4.334;2023-06-04T15:04:27;4.20;;;1.60;;
14474;SDS011;7323;50.848;4.334;2023-06-04T15:06:53;3.10;;;1.67;;
14474;SDS011;7323;50.848;4.334;2023-06-04T15:09:18;2.30;;;1.80;;
14474;SDS011;7323;50.848;4.334;2023-06-04T15:11:44;4.77;;;1.63;;
14474;SDS011;7323;50.848;4.334;2023-06-04T15:14:10;11.33;;;1.93;;
14474;SDS011;7323;50.848;4.334;2023-06-04T15:16:35;3.57;;;1.67;;
14474;SDS011;7323;50.848;4.334;2023-06-04T15:19:01;2.10;;;1.60;;
14474;SDS011;7323;50.848;4.334;2023-06-04T15:21:27;5.10;;;1.93;;
14474;SDS011;7323;50.848;4.334;2023-06-04T15:23:52;4.33;;;1.90;;
14474;SDS011;7323;50.848;4.334;2023-06-04T15:26:18;3.50;;;1.70;;
14474;SDS011;7323;50.848;4.334;2023-06-04T15:28:44;3.20;;;1.73;;
14474;SDS011;7323;50.848;4.334;2023-06-04T15:31:10;5.37;;;2.43;;
14474;SDS011;7323;50.848;4.334;2023-06-04T15:33:36;5.13;;;1.87;;
14474;SDS011;7323;50.848;4.334;2023-06-04T15:36:01;2.43;;;1.60;;
14474;SDS011;7323;50.848;4.334;2023-06-04T15:38:27;3.87;;;1.70;;
14474;SDS011;7323;50.848;4.334;2023-06-04T15:40:53;4.10;;;1.70;;
14474;SDS011;7323;50.848;4.334;2023-06-04T15:43:18;5.20;;;2.00;;
14474;SDS011;7323;50.848;4.334;2023-06-04T15:45:45;3.23;;;1.60;;
14474;SDS011;7323;50.848;4.334;2023-06-04T15:48:10;4.70;;;2.10;;
14474;SDS011;7323;50.848;4.334;2023-06-04T15:50:36;3.30;;;1.70;;